createdAt,value
2019-06-08T00:00:26.366Z,62.33
2019-06-08T00:01:08.869Z,61.56
2019-06-08T00:01:49.389Z,61.46
2019-06-08T00:02:31.637Z,62.13
2019-06-08T00:03:13.118Z,62.59
2019-06-08T00:03:52.614Z,62.77
2019-06-08T00:04:33.247Z,62.87
2019-06-08T00:05:16.852Z,62.68
2019-06-08T00:05:59.333Z,62.59
2019-06-08T00:06:41.840Z,62.87
2019-06-08T00:07:23.062Z,63.73
2019-06-08T00:08:04.722Z,63.64
2019-06-08T00:08:45.384Z,63.64
2019-06-08T00:09:25.858Z,63.16
2019-06-08T00:10:06.292Z,63.06
2019-06-08T00:10:46.766Z,63.16
2019-06-08T00:11:27.312Z,63.06
2019-06-08T00:12:07.781Z,63.64
2019-06-08T00:12:50.089Z,64.12
2019-06-08T00:13:31.658Z,64.31
2019-06-08T00:14:13.081Z,65.55
2019-06-08T00:14:53.482Z,64.59
2019-06-08T00:15:34.531Z,64.47
2019-06-08T00:16:15.241Z,64.69
2019-06-08T00:16:56.311Z,64.98
2019-06-08T00:17:38.677Z,65.84
2019-06-08T00:18:19.375Z,64.89
2019-06-08T00:19:01.491Z,65.26
2019-06-08T00:19:42.526Z,65.55
2019-06-08T00:20:23.748Z,65.17
2019-06-08T00:21:03.769Z,64.69
2019-06-08T00:21:44.135Z,65.17
2019-06-08T00:22:26.535Z,65.26
2019-06-08T00:23:10.625Z,64.47
2019-06-08T00:23:51.024Z,64.95
2019-06-08T00:24:31.677Z,64.18
2019-06-08T00:25:13.766Z,63.64
2019-06-08T00:25:56.936Z,65.36
2019-06-08T00:26:38.446Z,64.09
2019-06-08T00:27:20.128Z,63.92
2019-06-08T00:28:40.076Z,64.18
2019-06-08T00:29:20.552Z,63.16
2019-06-08T00:30:02.097Z,63.03
2019-06-08T00:30:42.457Z,63.45
2019-06-08T00:31:22.961Z,63.54
2019-06-08T00:32:03.523Z,64.22
2019-06-08T00:32:46.059Z,63.26
2019-06-08T00:33:28.383Z,63.16
2019-06-08T00:34:08.896Z,63.73
2019-06-08T00:34:49.393Z,62.01
2019-06-08T00:35:29.939Z,62.2
2019-06-08T00:36:10.633Z,61.24
2019-06-08T00:36:52.864Z,61.79
2019-06-08T00:37:35.173Z,62.84
2019-06-08T00:38:56.155Z,63.32
2019-06-08T00:39:38.439Z,62.87
2019-06-08T00:40:19.063Z,63.26
2019-06-08T00:41:40.051Z,62.01
2019-06-08T00:42:21.250Z,61.91
2019-06-08T00:43:02.610Z,63.06
2019-06-08T00:43:43.312Z,62.1
2019-06-08T00:44:25.586Z,62.01
2019-06-08T00:45:05.265Z,62.96
2019-06-08T00:45:46.011Z,62.68
2019-06-08T00:46:26.246Z,62.2
2019-06-08T00:47:08.486Z,61.63
2019-06-08T00:47:49.125Z,61.15
2019-06-08T00:48:33.562Z,63.06
2019-06-08T00:49:14.948Z,63.73
2019-06-08T00:49:55.606Z,62.96
2019-06-08T00:50:36.004Z,61.53
2019-06-08T00:51:17.341Z,62.01
2019-06-08T00:51:57.812Z,62.39
2019-06-08T00:52:38.296Z,61.43
2019-06-08T00:53:19.694Z,61.72
2019-06-08T00:54:00.707Z,61.53
2019-06-08T00:54:43.132Z,61.82
2019-06-08T00:55:26.310Z,61.15
2019-06-08T00:56:06.789Z,61.43
2019-06-08T00:56:47.958Z,61.63
2019-06-08T00:57:28.401Z,60.76
2019-06-08T00:58:09.189Z,61.15
2019-06-08T00:58:49.645Z,61.21
2019-06-08T00:59:31.346Z,61.34
2019-06-08T01:00:11.951Z,62.87
2019-06-08T01:00:52.299Z,62.17
2019-06-08T01:01:32.840Z,62.59
2019-06-08T01:02:13.247Z,63.26
2019-06-08T01:02:55.436Z,62.49
2019-06-08T01:03:36.095Z,61.11
2019-06-08T01:04:18.597Z,61.11
2019-06-08T01:04:58.744Z,61.5
2019-06-08T01:05:39.276Z,62.07
2019-06-08T01:07:53.341Z,61.6
2019-06-08T01:08:33.566Z,62.07
2019-06-08T01:09:15.003Z,61.98
2019-06-08T01:09:55.496Z,62.65
2019-06-08T01:10:35.929Z,63.51
2019-06-08T01:11:16.532Z,63.22
2019-06-08T01:11:57.094Z,61.4
2019-06-08T01:12:37.578Z,62.74
2019-06-08T01:13:18.813Z,62.55
2019-06-08T01:14:00.258Z,62.46
2019-06-08T01:14:40.747Z,61.31
2019-06-08T01:15:26.688Z,63.03
2019-06-08T01:16:01.894Z,63.13
2019-06-08T01:16:42.381Z,62.2
2019-06-08T01:17:25.101Z,61.5
2019-06-08T01:18:04.983Z,62.01
2019-06-08T01:18:45.428Z,62.65
2019-06-08T01:19:29.533Z,61.5
2019-06-08T01:20:11.343Z,61.6
2019-06-08T01:20:51.791Z,60.64
2019-06-08T01:21:32.313Z,61.31
2019-06-08T01:22:12.777Z,60.44
2019-06-08T01:22:54.926Z,60.54
2019-06-08T01:23:35.529Z,61.02
2019-06-08T01:24:15.991Z,61.11
2019-06-08T01:24:56.550Z,61.02
2019-06-08T01:25:37.094Z,60.83
2019-06-08T01:26:19.774Z,62.07
2019-06-08T01:26:59.937Z,62.93
2019-06-08T01:27:40.397Z,61.98
2019-06-08T01:28:22.113Z,62.74
2019-06-08T01:29:01.592Z,61.88
2019-06-08T01:29:43.647Z,61.66
2019-06-08T01:30:26.311Z,63.1
2019-06-08T01:31:07.157Z,62.84
2019-06-08T01:31:49.276Z,62.62
2019-06-08T01:32:30.578Z,62.81
2019-06-08T01:33:10.222Z,63.19
2019-06-08T01:33:50.727Z,62.52
2019-06-08T01:34:31.285Z,63
2019-06-08T01:35:13.654Z,63
2019-06-08T01:35:54.116Z,62.71
2019-06-08T01:37:15.338Z,63.48
2019-06-08T01:37:56.714Z,63.48
2019-06-08T01:38:37.161Z,63.39
2019-06-08T01:39:19.465Z,63.35
2019-06-08T01:40:01.408Z,64.05
2019-06-08T01:40:41.921Z,64.15
2019-06-08T01:41:25.437Z,64.15
2019-06-08T01:42:05.146Z,64.34
2019-06-08T01:42:47.461Z,64.05
2019-06-08T01:43:28.087Z,64.63
2019-06-08T01:44:09.559Z,64.43
2019-06-08T01:44:49.992Z,64.02
2019-06-08T01:45:30.443Z,64.31
2019-06-08T01:46:10.953Z,64.63
2019-06-08T01:47:34.876Z,64.92
2019-06-08T01:48:20.243Z,65.2
2019-06-08T01:48:57.791Z,64.92
2019-06-08T01:49:38.287Z,64.53
2019-06-08T01:50:18.711Z,65.11
2019-06-08T01:51:01.065Z,64.34
2019-06-08T01:51:43.727Z,63.86
2019-06-08T01:52:24.626Z,63.96
2019-06-08T01:53:04.882Z,63.96
2019-06-08T01:53:47.190Z,63.48
2019-06-08T01:55:08.203Z,63.57
2019-06-08T01:55:50.792Z,64.43
2019-06-08T01:56:31.291Z,64.15
2019-06-08T01:57:11.714Z,64.43
2019-06-08T01:57:53.272Z,64.05
2019-06-08T01:58:33.827Z,63.86
2019-06-08T01:59:58.011Z,63.57
2019-06-08T02:00:41.327Z,63.76
2019-06-08T02:01:19.002Z,63.29
2019-06-08T02:01:59.464Z,63.29
2019-06-08T02:02:39.950Z,63.29
2019-06-08T02:03:20.573Z,63.89
2019-06-08T02:04:00.898Z,63.29
2019-06-08T02:04:41.544Z,64.66
2019-06-08T02:05:22.129Z,63.8
2019-06-08T02:06:04.853Z,63.57
2019-06-08T02:06:45.110Z,64.18
2019-06-08T02:07:26.318Z,64.76
2019-06-08T02:08:06.104Z,63.32
2019-06-08T02:08:46.716Z,63.42
2019-06-08T02:10:07.727Z,63.7
2019-06-08T02:10:52.569Z,63.22
2019-06-08T02:11:36.043Z,62.36
2019-06-08T02:12:16.683Z,62.17
2019-06-08T02:12:56.987Z,62.65
2019-06-08T02:13:38.345Z,62.84
2019-06-08T02:14:18.935Z,61.98
2019-06-08T02:14:59.383Z,62.65
2019-06-08T02:15:40.061Z,62.65
2019-06-08T02:16:20.385Z,62.74
2019-06-08T02:17:00.948Z,63.22
2019-06-08T02:17:43.256Z,62.74
2019-06-08T02:18:36.160Z,63.51
2019-06-08T02:19:04.198Z,62.93
2019-06-08T02:19:44.665Z,62.65
2019-06-08T02:20:26.274Z,61.5
2019-06-08T02:21:05.625Z,61.6
2019-06-08T02:21:46.113Z,61.5
2019-06-08T02:22:28.843Z,61.98
2019-06-08T02:23:09.909Z,62.46
2019-06-08T02:23:50.401Z,62.52
2019-06-08T02:24:33.367Z,62.81
2019-06-08T02:25:13.220Z,63.57
2019-06-08T02:25:53.752Z,63.19
2019-06-08T02:26:36.351Z,63.57
2019-06-08T02:27:15.677Z,63.57
2019-06-08T02:27:57.288Z,62.71
2019-06-08T02:28:43.246Z,63.57
2019-06-08T02:29:25.958Z,63.76
2019-06-08T02:30:08.435Z,63.19
2019-06-08T02:30:48.785Z,63.1
2019-06-08T02:31:30.624Z,63.48
2019-06-08T02:32:11.056Z,63.48
2019-06-08T02:32:51.524Z,63.48
2019-06-08T02:33:34.871Z,64.53
2019-06-08T02:34:13.656Z,64.82
2019-06-08T02:34:54.293Z,64.72
2019-06-08T02:35:37.806Z,64.25
2019-06-08T02:36:18.142Z,63.19
2019-06-08T02:36:58.600Z,63.57
2019-06-08T02:37:39.851Z,63.51
2019-06-08T02:38:19.691Z,62.93
2019-06-08T02:39:00.169Z,62.65
2019-06-08T02:39:40.670Z,62.93
2019-06-08T02:40:21.364Z,63.03
2019-06-08T02:41:02.695Z,63.51
2019-06-08T02:41:43.587Z,62.65
2019-06-08T02:42:25.938Z,63.22
2019-06-08T02:43:06.382Z,62.55
2019-06-08T02:43:46.952Z,63.22
2019-06-08T02:44:28.232Z,62.74
2019-06-08T02:45:08.372Z,62.84
2019-06-08T02:45:48.803Z,61.6
2019-06-08T02:46:30.928Z,62.17
2019-06-08T02:47:09.774Z,63.13
2019-06-08T02:47:50.330Z,62.46
2019-06-08T02:48:31.395Z,62.84
2019-06-08T02:49:11.414Z,62.93
2019-06-08T02:49:52.270Z,63.03
2019-06-08T02:50:33.019Z,62.93
2019-06-08T02:51:16.779Z,62.55
2019-06-08T02:51:57.410Z,63.22
2019-06-08T02:52:38.344Z,63.13
2019-06-08T02:53:18.349Z,63.13
2019-06-08T02:53:59.171Z,62.87
2019-06-08T02:54:41.127Z,63.06
2019-06-08T02:55:20.754Z,62.68
2019-06-08T02:56:02.906Z,62.59
2019-06-08T02:56:43.460Z,61.53
2019-06-08T02:58:05.285Z,61.53
2019-06-08T02:58:45.935Z,61.53
2019-06-08T02:59:27.207Z,62.77
2019-06-08T03:00:07.971Z,62.68
2019-06-08T03:00:48.383Z,62.93
2019-06-08T03:01:29.531Z,62.96
2019-06-08T03:02:09.401Z,63.35
2019-06-08T03:05:26.973Z,61.53
2019-06-08T03:06:07.337Z,61.53
2019-06-08T03:06:48.541Z,61.53
2019-06-08T03:07:30.362Z,61.56
2019-06-08T03:08:09.987Z,61.18
2019-06-08T03:08:50.866Z,61.56
2019-06-08T03:09:32.471Z,61.18
2019-06-08T03:10:12.301Z,60.6
2019-06-08T03:10:52.851Z,60.96
2019-06-08T03:11:34.747Z,60.5
2019-06-08T03:12:14.851Z,59.64
2019-06-08T03:12:55.223Z,59.23
2019-06-08T03:13:37.856Z,59.61
2019-06-08T03:14:17.161Z,60.57
2019-06-08T03:14:58.167Z,60.47
2019-06-08T03:15:41.398Z,60.76
2019-06-08T03:16:20.738Z,60.67
2019-06-08T03:17:01.032Z,60.38
2019-06-08T03:17:42.118Z,61.82
2019-06-08T03:18:22.329Z,60.86
2019-06-08T03:19:19.836Z,60.25
2019-06-08T03:21:01.202Z,61.53
2019-06-08T03:21:43.896Z,60.25
2019-06-08T03:22:24.163Z,60.06
2019-06-08T03:23:04.623Z,59.97
2019-06-08T03:23:46.026Z,60.54
2019-06-08T03:24:26.641Z,60.44
2019-06-08T03:25:07.096Z,60.44
2019-06-08T03:25:52.714Z,61.4
2019-06-08T03:26:28.210Z,61.5
2019-06-08T03:27:08.752Z,60.44
2019-06-08T03:27:49.353Z,59.77
2019-06-08T03:28:32.600Z,60.61
2019-06-08T03:29:12.205Z,61.47
2019-06-08T03:29:53.362Z,61.28
2019-06-08T03:30:38.659Z,60.99
2019-06-08T03:31:15.282Z,61.98
2019-06-08T03:31:57.354Z,61.02
2019-06-08T03:32:50.306Z,61.79
2019-06-08T03:33:21.763Z,60.93
2019-06-08T03:34:03.309Z,60.35
2019-06-08T03:34:53.839Z,61.6
2019-06-08T03:36:04.952Z,60.44
2019-06-08T03:36:54.066Z,60.73
2019-06-08T03:37:25.900Z,60.64
2019-06-08T03:38:06.470Z,61.02
2019-06-08T03:38:46.965Z,60.8
2019-06-08T03:39:27.449Z,61.57
2019-06-08T03:40:50.247Z,62.04
2019-06-08T03:41:30.804Z,62.71
2019-06-08T03:42:13.194Z,62.04
2019-06-08T03:42:57.534Z,62.84
2019-06-08T03:43:37.546Z,62.93
2019-06-08T03:44:16.487Z,63.13
2019-06-08T03:44:57.906Z,61.69
2019-06-08T03:45:40.832Z,61.5
2019-06-08T03:46:21.358Z,61.76
2019-06-08T03:47:01.780Z,62.52
2019-06-08T03:47:44.002Z,63
2019-06-08T03:48:23.777Z,63.29
2019-06-08T03:49:05.198Z,63.96
2019-06-08T03:49:54.402Z,63.1
2019-06-08T03:50:26.739Z,63.19
2019-06-08T03:51:07.211Z,63.19
2019-06-08T03:51:48.904Z,63.48
2019-06-08T03:52:29.148Z,63.48
2019-06-08T03:53:09.851Z,63.48
2019-06-08T03:53:50.610Z,64.25
2019-06-08T03:54:31.910Z,64.53
2019-06-08T03:55:14.199Z,64.53
2019-06-08T03:55:54.828Z,63.57
2019-06-08T03:56:35.781Z,63.19
2019-06-08T03:57:15.858Z,62.9
2019-06-08T03:57:56.178Z,63.39
2019-06-08T03:58:38.393Z,64.47
2019-06-08T03:59:17.137Z,63.89
2019-06-08T03:59:57.657Z,62.74
2019-06-08T04:00:38.240Z,62.46
2019-06-08T04:01:18.499Z,62.07
2019-06-08T04:01:58.970Z,62.14
2019-06-08T04:02:42.240Z,63
2019-06-08T04:03:22.627Z,63.29
2019-06-08T04:04:03.314Z,62.93
2019-06-08T04:04:43.903Z,63.22
2019-06-08T04:05:27.449Z,62.93
2019-06-08T04:06:07.870Z,62.74
2019-06-08T04:06:50.028Z,63.51
2019-06-08T04:07:29.721Z,63.32
2019-06-08T04:08:09.713Z,63.22
2019-06-08T04:08:51.193Z,62.55
2019-06-08T04:09:31.889Z,62.26
2019-06-08T04:10:17.200Z,62.65
2019-06-08T04:10:58.031Z,63.22
2019-06-08T04:11:40.044Z,62.93
2019-06-08T04:12:18.990Z,62.74
2019-06-08T04:12:59.851Z,62.14
2019-06-08T04:13:41.985Z,62.23
2019-06-08T04:14:21.939Z,63
2019-06-08T04:15:02.490Z,62.52
2019-06-08T04:16:23.477Z,63
2019-06-08T04:17:03.992Z,63.1
2019-06-08T04:17:46.226Z,63.39
2019-06-08T04:18:25.132Z,63.03
2019-06-08T04:19:10.196Z,62.74
2019-06-08T04:20:09.294Z,62.74
2019-06-08T04:20:31.551Z,63.13
2019-06-08T04:21:11.891Z,62.93
2019-06-08T04:21:52.473Z,63.32
2019-06-08T04:22:33.099Z,62.17
2019-06-08T04:23:53.939Z,62.52
2019-06-08T04:24:34.528Z,63.1
2019-06-08T04:25:14.879Z,62.81
2019-06-08T04:25:55.486Z,63.39
2019-06-08T04:26:35.933Z,63.99
2019-06-08T04:27:16.519Z,63.99
2019-06-08T05:06:35.507Z,63.16
2019-06-08T05:07:15.318Z,63.64
2019-06-08T05:07:59.120Z,62.49
2019-06-08T05:08:40.878Z,63.06
2019-06-08T05:09:20.250Z,62.77
2019-06-08T05:10:00.809Z,63.16
2019-06-08T05:10:41.416Z,62.3
2019-06-08T05:11:22.090Z,62.68
2019-06-08T05:12:02.399Z,62.3
2019-06-08T05:12:47.645Z,62.2
2019-06-08T05:13:26.914Z,63.16
2019-06-08T05:14:10.989Z,62.3
2019-06-08T05:14:51.488Z,63.16
2019-06-08T05:15:32.100Z,62.11
2019-06-08T05:16:12.620Z,62.11
2019-06-08T05:16:54.656Z,61.15
2019-06-08T05:17:36.195Z,62.49
2019-06-08T05:18:17.081Z,62.62
2019-06-08T05:18:58.087Z,60.8
2019-06-08T05:19:39.219Z,60.51
2019-06-08T05:20:19.223Z,60.29
2019-06-08T05:21:00.656Z,61.18
2019-06-08T05:21:43.498Z,59.75
2019-06-08T05:22:24.784Z,60.41
2019-06-08T05:23:05.432Z,60.13
2019-06-08T05:24:26.547Z,59.75
2019-06-08T05:25:07.013Z,59.43
2019-06-08T05:25:49.449Z,59.33
2019-06-08T05:27:11.431Z,60.67
2019-06-08T05:27:52.798Z,60.29
2019-06-08T05:28:33.369Z,60.96
2019-06-08T05:29:14.333Z,60.77
2019-06-08T05:29:54.888Z,61.34
2019-06-08T05:30:37.281Z,60.48
2019-06-08T05:31:58.283Z,61.25
2019-06-08T05:32:39.382Z,60.67
2019-06-08T05:33:20.443Z,61.63
2019-06-08T05:34:41.466Z,61.85
2019-06-08T05:35:23.461Z,61.76
2019-06-08T05:36:04.034Z,60.51
2019-06-08T05:36:45.429Z,60.13
2019-06-08T05:37:26.471Z,60.89
2019-06-08T05:38:08.777Z,61.66
2019-06-08T05:38:49.835Z,60.8
2019-06-08T05:39:29.709Z,60.7
2019-06-08T05:40:10.176Z,61.57
2019-06-08T05:40:50.682Z,60.73
2019-06-08T05:41:32.358Z,60.03
2019-06-08T05:42:12.744Z,60.41
2019-06-08T05:42:54.171Z,60.22
2019-06-08T05:43:34.733Z,60.7
2019-06-08T05:44:15.105Z,60.99
2019-06-08T05:44:55.662Z,61.47
2019-06-08T05:45:36.196Z,61.28
2019-06-08T05:46:17.540Z,61.11
2019-06-08T05:46:58.049Z,60.41
2019-06-08T05:47:39.714Z,60.25
2019-06-08T05:48:19.314Z,61.5
2019-06-08T05:49:41.399Z,60.93
2019-06-08T05:50:20.875Z,60.44
2019-06-08T05:51:04.075Z,59.87
2019-06-08T05:51:41.999Z,60.25
2019-06-08T05:52:24.394Z,60.06
2019-06-08T05:53:07.093Z,60.64
2019-06-08T05:53:47.906Z,60.93
2019-06-08T05:54:28.398Z,59.87
2019-06-08T05:55:08.866Z,60.35
2019-06-08T05:55:50.098Z,59.48
2019-06-08T05:57:10.429Z,59.68
2019-06-08T05:57:50.874Z,58.91
2019-06-08T05:58:31.906Z,59.33
2019-06-08T05:59:14.038Z,59.23
2019-06-08T05:59:54.541Z,58.81
2019-06-08T06:00:34.976Z,58.91
2019-06-08T06:01:15.782Z,58.72
2019-06-08T06:01:56.392Z,59.39
2019-06-08T06:02:36.868Z,59.2
2019-06-08T06:03:17.344Z,59.94
2019-06-08T06:03:57.935Z,60.22
2019-06-08T06:05:22.466Z,60.7
2019-06-08T06:06:02.932Z,61.31
2019-06-08T06:06:44.631Z,61.5
2019-06-08T06:07:25.138Z,60.93
2019-06-08T06:08:17.943Z,60.54
2019-06-08T06:08:47.302Z,60.06
2019-06-08T06:09:29.928Z,59.97
2019-06-08T06:10:10.981Z,59.48
2019-06-08T06:10:51.470Z,60.06
2019-06-08T06:11:32.061Z,60.06
2019-06-08T06:12:12.465Z,59.97
2019-06-08T06:12:52.977Z,59.58
2019-06-08T06:13:33.460Z,60.54
2019-06-08T06:14:13.989Z,60.16
2019-06-08T06:14:54.476Z,59.58
2019-06-08T06:15:35.714Z,59.9
2019-06-08T06:16:16.391Z,58.75
2019-06-08T06:16:57.044Z,59.52
2019-06-08T06:17:41.337Z,58.75
2019-06-08T06:18:21.812Z,59.42
2019-06-08T06:19:03.227Z,58.37
2019-06-08T06:19:45.069Z,59.52
2019-06-08T06:20:24.297Z,58.27
2019-06-08T06:21:10.689Z,58.56
2019-06-08T06:21:47.251Z,58.46
2019-06-08T06:22:27.702Z,58.17
2019-06-08T06:23:09.058Z,57.31
2019-06-08T06:23:51.498Z,57.03
2019-06-08T06:24:31.642Z,58.15
2019-06-08T06:25:12.157Z,59.61
2019-06-08T06:25:52.614Z,59.13
2019-06-08T06:26:33.111Z,58.56
2019-06-08T06:27:13.659Z,58.65
2019-06-08T06:27:54.127Z,58.49
2019-06-08T06:28:36.633Z,58.39
2019-06-08T06:29:17.137Z,57.63
2019-06-08T06:30:39.907Z,56.67
2019-06-08T06:31:20.368Z,56.76
2019-06-08T06:32:00.928Z,57.24
2019-06-08T06:32:43.801Z,57.24
2019-06-08T06:33:23.953Z,56.96
2019-06-08T06:34:04.522Z,56.67
2019-06-08T06:34:45.790Z,56.19
2019-06-08T06:35:26.366Z,55.33
2019-06-08T06:36:07.655Z,56.76
2019-06-08T06:36:48.190Z,56.93
2019-06-08T06:38:11.210Z,56.64
2019-06-08T06:38:52.189Z,56.83
2019-06-08T06:39:34.109Z,57.03
2019-06-08T06:40:14.564Z,57.63
2019-06-08T06:40:55.026Z,57.34
2019-06-08T06:41:35.525Z,57.53
2019-06-08T06:42:16.302Z,57.72
2019-06-08T06:42:56.838Z,57.28
2019-06-08T06:43:37.374Z,56.51
2019-06-08T06:44:17.915Z,55.93
2019-06-08T06:45:41.740Z,55.26
2019-06-08T06:46:21.925Z,56.89
2019-06-08T06:47:02.296Z,56.12
2019-06-08T06:47:46.238Z,56.7
2019-06-08T06:48:25.121Z,56.31
2019-06-08T06:49:06.819Z,56.31
2019-06-08T06:49:48.394Z,56.22
2019-06-08T06:50:29.508Z,55.55
2019-06-08T06:51:22.780Z,54.49
2019-06-08T06:51:50.712Z,54.01
2019-06-08T06:52:31.285Z,54.78
2019-06-08T06:53:11.744Z,55.26
2019-06-08T06:53:53.255Z,54.88
2019-06-08T06:54:33.115Z,55.16
2019-06-08T06:55:15.304Z,55.35
2019-06-08T06:55:56.734Z,55.35
2019-06-08T06:56:37.202Z,55.16
2019-06-08T06:57:17.793Z,55.64
2019-06-08T06:57:58.872Z,56.09
2019-06-08T06:58:39.303Z,56.12
2019-06-08T06:59:19.800Z,55.74
2019-06-08T07:00:00.388Z,55.64
2019-06-08T07:01:21.322Z,55.45
2019-06-08T07:02:03.153Z,55.26
2019-06-08T07:02:43.685Z,54.88
2019-06-08T07:03:24.207Z,55.16
2019-06-08T07:04:04.709Z,55.74
2019-06-08T07:04:45.911Z,55.45
2019-06-08T07:05:25.943Z,55.35
2019-06-08T07:06:06.411Z,56.02
2019-06-08T07:06:48.096Z,55.26
2019-06-08T07:07:27.452Z,55.45
2019-06-08T07:08:08.290Z,55.64
2019-06-08T07:08:48.768Z,55.74
2019-06-08T07:09:30.998Z,54.97
2019-06-08T07:10:11.774Z,55.07
2019-06-08T07:10:53.479Z,55.83
2019-06-08T07:11:32.811Z,55.83
2019-06-08T07:12:13.411Z,55.55
2019-06-08T07:12:54.846Z,55.35
2019-06-08T07:13:37.163Z,55.83
2019-06-08T07:14:17.638Z,55.93
2019-06-08T07:14:58.125Z,55.52
2019-06-08T07:15:41.669Z,55.71
2019-06-08T07:16:19.544Z,56.19
2019-06-08T07:16:59.762Z,55.35
2019-06-08T07:17:40.292Z,55.04
2019-06-08T07:18:21.801Z,54.75
2019-06-08T07:19:02.542Z,55.42
2019-06-08T07:19:43.068Z,55.8
2019-06-08T07:20:25.474Z,55.52
2019-06-08T07:21:05.860Z,55.42
2019-06-08T07:21:48.280Z,54.94
2019-06-08T07:22:31.412Z,56.09
2019-06-08T07:23:11.838Z,55.8
2019-06-08T07:23:54.281Z,56
2019-06-08T07:24:34.739Z,55.71
2019-06-08T07:25:15.228Z,56.86
2019-06-08T07:25:58.678Z,56.67
2019-06-08T07:26:38.419Z,55.33
2019-06-08T07:27:19.860Z,55.71
2019-06-08T07:28:00.316Z,56.19
2019-06-08T07:29:21.455Z,56.19
2019-06-08T07:30:01.959Z,56.79
2019-06-08T07:30:42.405Z,56.51
2019-06-08T07:31:22.960Z,56.7
2019-06-08T07:32:04.315Z,55.93
2019-06-08T07:32:55.083Z,54.78
2019-06-08T07:33:35.133Z,54.11
2019-06-08T07:34:15.597Z,54.17
2019-06-08T07:34:56.465Z,54.75
2019-06-08T07:35:36.939Z,54.66
2019-06-08T07:37:00.756Z,56.19
2019-06-08T07:37:43.659Z,55.9
2019-06-08T07:38:24.136Z,56.67
2019-06-08T07:39:04.715Z,55.23
2019-06-08T07:39:45.351Z,55.52
2019-06-08T07:40:26.857Z,55.8
2019-06-08T07:41:07.804Z,55.52
2019-06-08T07:42:28.820Z,54.94
2019-06-08T07:43:09.995Z,55.04
2019-06-08T07:43:52.312Z,54.94
2019-06-08T07:44:32.534Z,54.66
2019-06-08T07:45:13.029Z,55.71
2019-06-08T07:45:54.660Z,55.13
2019-06-08T07:46:35.110Z,55.23
2019-06-08T07:47:15.678Z,55.9
2019-06-08T07:47:56.166Z,55.83
2019-06-08T07:48:37.313Z,55.07
2019-06-08T07:49:17.776Z,54.66
2019-06-08T07:49:59.632Z,54.08
2019-06-08T07:50:41.032Z,55.04
2019-06-08T07:51:22.477Z,54.88
2019-06-08T07:52:10.065Z,54.78
2019-06-08T07:52:44.600Z,54.46
2019-06-08T07:53:27.066Z,54.27
2019-06-08T07:54:07.588Z,54.17
2019-06-08T07:54:49.671Z,54.75
2019-06-08T07:55:29.640Z,55.71
2019-06-08T07:56:11.946Z,55.55
2019-06-08T07:56:52.889Z,55.26
2019-06-08T07:57:33.014Z,54.88
2019-06-08T07:58:13.451Z,55.07
2019-06-08T07:58:55.053Z,54.97
2019-06-08T08:00:18.605Z,53.82
2019-06-08T08:01:07.606Z,53.72
2019-06-08T08:01:40.537Z,54.01
2019-06-08T08:02:21.019Z,54.78
2019-06-08T08:03:01.585Z,55.19
2019-06-08T08:03:44.888Z,55
2019-06-08T08:04:26.274Z,54.74
2019-06-08T08:05:07.222Z,54.16
2019-06-08T08:05:48.146Z,53.78
2019-06-08T08:06:30.427Z,53.3
2019-06-08T08:07:08.770Z,53.58
2019-06-08T08:07:50.225Z,53.58
2019-06-08T08:08:30.834Z,53.03
2019-06-08T08:09:12.943Z,53.32
2019-06-08T08:10:35.595Z,52.46
2019-06-08T08:11:16.045Z,52.36
2019-06-08T08:11:59.566Z,51.69
2019-06-08T08:13:21.297Z,52.26
2019-06-08T08:14:02.142Z,52.08
2019-06-08T08:14:42.638Z,51.98
2019-06-08T08:15:23.598Z,51.11
2019-06-08T08:16:03.973Z,51.21
2019-06-08T08:16:44.498Z,50.63
2019-06-08T08:17:24.978Z,50.63
2019-06-08T08:18:05.528Z,50.42
2019-06-08T08:18:46.067Z,50.61
2019-06-08T08:19:29.029Z,51.37
2019-06-08T08:20:51.072Z,51.73
2019-06-08T08:21:31.113Z,52.6
2019-06-08T08:22:21.916Z,53.56
2019-06-08T08:22:56.438Z,53.66
2019-06-08T08:23:32.354Z,54.61
2019-06-08T08:24:14.627Z,54.04
2019-06-08T08:25:02.409Z,54.61
2019-06-08T08:25:39.277Z,54.13
2019-06-08T08:26:19.745Z,54.16
2019-06-08T08:27:03.189Z,53.97
2019-06-08T08:27:40.737Z,53.58
2019-06-08T08:28:21.282Z,53.11
2019-06-08T08:29:03.159Z,53.49
2019-06-08T08:29:42.883Z,53.49
2019-06-08T08:30:23.327Z,53.49
2019-06-08T08:31:04.189Z,53.3
2019-06-08T08:31:44.479Z,52.62
2019-06-08T08:32:25.145Z,53.3
2019-06-08T08:33:07.758Z,53.49
2019-06-08T08:33:48.499Z,53.2
2019-06-08T08:34:28.357Z,53.23
2019-06-08T08:35:08.911Z,52.75
2019-06-08T08:36:33.073Z,52.81
2019-06-08T08:37:10.053Z,53.11
2019-06-08T08:37:55.037Z,52.53
2019-06-08T08:38:31.165Z,52.34
2019-06-08T08:39:11.622Z,52.53
2019-06-08T08:39:53.449Z,52.43
2019-06-08T08:40:32.660Z,52.53
2019-06-08T08:41:14.725Z,53.01
2019-06-08T08:41:57.212Z,52.53
2019-06-08T08:42:38.490Z,52.34
2019-06-08T08:43:22.882Z,53.01
2019-06-08T08:44:04.244Z,53.2
2019-06-08T08:44:41.298Z,53.39
2019-06-08T08:45:21.811Z,53.11
2019-06-08T08:46:02.450Z,53.39
2019-06-08T08:46:43.826Z,53.11
2019-06-08T08:47:25.161Z,53.39
2019-06-08T08:48:21.358Z,53.39
2019-06-08T08:48:48.583Z,53.49
2019-06-08T08:49:31.805Z,53.61
2019-06-08T08:50:12.374Z,52.62
2019-06-08T08:50:54.142Z,53.11
2019-06-08T08:52:17.441Z,54.16
2019-06-08T08:53:00.328Z,53.68
2019-06-08T08:53:39.791Z,54.16
2019-06-08T08:55:02.195Z,53.03
2019-06-08T08:55:42.083Z,52.36
2019-06-08T08:56:22.466Z,52.17
2019-06-08T08:57:05.272Z,51.98
2019-06-08T08:57:45.368Z,51.53
2019-06-08T08:58:28.077Z,51.23
2019-06-08T08:59:55.011Z,49.63
2019-06-08T09:00:33.561Z,49.17
2019-06-08T09:01:14.062Z,47.92
2019-06-08T09:01:54.807Z,47.24
2019-06-08T09:02:37.616Z,47.22
2019-06-08T09:03:28.623Z,48.21
2019-06-08T09:04:03.579Z,47.53
2019-06-08T09:04:43.535Z,48.02
2019-06-08T09:05:23.987Z,47.56
2019-06-08T09:06:04.728Z,46.69
2019-06-08T09:07:27.507Z,46.81
2019-06-08T09:08:08.723Z,45.68
2019-06-08T09:08:48.490Z,44.42
2019-06-08T09:10:11.209Z,46.42
2019-06-08T09:10:51.743Z,46.33
2019-06-08T09:11:30.585Z,45.94
2019-06-08T09:12:11.199Z,45.68
2019-06-08T09:12:52.539Z,45.48
2019-06-08T09:13:32.192Z,44.62
2019-06-08T09:14:14.192Z,45.2
2019-06-08T09:14:54.783Z,45.97
2019-06-08T09:15:34.696Z,44.9
2019-06-08T09:16:17.498Z,45.65
2019-06-08T09:16:58.488Z,45.75
2019-06-08T09:17:38.558Z,46.42
2019-06-08T09:18:18.750Z,46.69
2019-06-08T09:19:00.767Z,46.52
2019-06-08T09:19:38.315Z,46.81
2019-06-08T09:20:19.535Z,46.42
2019-06-08T09:21:02.320Z,45.46
2019-06-08T09:21:41.990Z,46.5
2019-06-08T09:22:22.459Z,46.77
2019-06-08T09:24:23.115Z,48.79
2019-06-08T09:25:04.465Z,48.79
2019-06-08T09:25:44.118Z,48.11
2019-06-08T09:26:24.653Z,47.72
2019-06-08T09:27:07.758Z,47.82
2019-06-08T09:27:48.067Z,47.46
2019-06-08T09:28:28.353Z,46.98
2019-06-08T09:29:10.791Z,46.98
2019-06-08T09:29:48.153Z,46.52
2019-06-08T09:30:27.962Z,46.14
2019-06-08T09:31:11.600Z,46.52
2019-06-08T09:31:51.883Z,46.42
2019-06-08T09:32:31.511Z,46.52
2019-06-08T09:33:12.191Z,46.62
2019-06-08T09:33:59.161Z,46.59
2019-06-08T09:34:34.070Z,47.36
2019-06-08T09:35:18.612Z,47.27
2019-06-08T09:36:00.790Z,46.78
2019-06-08T09:36:40.658Z,46.59
2019-06-08T09:37:19.016Z,45.92
2019-06-08T09:38:02.509Z,46.23
2019-06-08T09:38:39.912Z,46.42
2019-06-08T09:39:20.448Z,46.21
2019-06-08T09:40:02.538Z,46.4
2019-06-08T09:40:41.397Z,46.88
2019-06-08T09:41:22.797Z,47.46
2019-06-08T09:42:04.852Z,47.85
2019-06-08T09:42:43.827Z,47.75
2019-06-08T09:43:24.267Z,47.17
2019-06-08T09:44:48.090Z,48.33
2019-06-08T09:45:28.775Z,48.13
2019-06-08T09:46:09.094Z,47.56
2019-06-08T09:47:28.327Z,47.17
2019-06-08T09:48:09.350Z,48.03
2019-06-08T09:48:49.253Z,48.23
2019-06-08T09:49:30.095Z,48.33
2019-06-08T09:50:10.661Z,48.52
2019-06-08T09:50:51.222Z,47.56
2019-06-08T09:51:31.813Z,46.98
2019-06-08T09:52:12.279Z,46.59
2019-06-08T09:53:04.927Z,46.11
2019-06-08T09:53:37.379Z,47.56
2019-06-08T09:54:14.033Z,47.56
2019-06-08T09:54:56.879Z,47.27
2019-06-08T09:55:38.120Z,46.98
2019-06-08T09:56:18.459Z,48.03
2019-06-08T09:57:00.682Z,46.88
2019-06-08T09:57:38.427Z,47.36
2019-06-08T09:58:18.189Z,47.46
2019-06-08T09:59:02.591Z,47.1
2019-06-08T09:59:38.889Z,47.19
2019-06-08T10:00:22.188Z,46.42
2019-06-08T10:01:02.715Z,45.84
2019-06-08T10:01:40.408Z,45.58
2019-06-08T10:02:20.863Z,45.68